• Join FlightAware (Why Join?)
  • Login
  • US Flag 
03:26PM EST


 

Airport Tracker/Info


-or-


 

Live Flight TrackerFlight Track Log ✈ CES5800 ✈ 12-Jul-2013 ✈ ZHLY / LYA - ZPPP / KMG

Flight Track Log - Related Links

Times and Time Zones

All times are in EDT time to prevent confusion due to time zone crossing. See the CES5800 flight status page for this flight to view local times or setup timezone preferences in your user account.

Time Position Orientation Groundspeed Altitude Reporting Facility
EDT Latitude Longitude Course Direction KTS MPH feet Rate Location/Type
10:26AM 31.8572 109.2828 223° Southwest  Level Estimated
10:27AM 31.7737 109.1971 221° Southwest  Level Estimated
10:28AM 31.6902 109.1114 221° Southwest  Level Estimated
10:29AM 31.6066 109.0259 221° Southwest  Level Estimated
10:30AM 31.5229 108.9406 221° Southwest  Level Estimated
10:31AM 31.4391 108.8554 221° Southwest  Level Estimated
10:32AM 31.3554 108.7704 221° Southwest  Level Estimated
10:33AM 31.2715 108.6855 221° Southwest  Level Estimated
10:34AM 31.1876 108.6008 221° Southwest  Level Estimated
10:35AM 31.1037 108.5163 221° Southwest  Level Estimated
10:36AM 31.0197 108.4318 221° Southwest  Level Estimated
10:37AM 30.9356 108.3476 221° Southwest  Level Estimated
10:38AM 30.8515 108.2635 221° Southwest  Level Estimated
10:39AM 30.7673 108.1795 221° Southwest  Level Estimated
10:40AM 30.6831 108.0956 221° Southwest  Level Estimated
10:41AM 30.5989 108.0120 221° Southwest  Level Estimated
10:42AM 30.5145 107.9284 220° Southwest  Level Estimated
10:43AM 30.4301 107.8450 220° Southwest  Level Estimated
10:44AM 30.3457 107.7618 220° Southwest  Level Estimated
10:45AM 30.2612 107.6787 220° Southwest  Level Estimated
10:46AM 30.1767 107.5957 220° Southwest  Level Estimated
10:47AM 30.0921 107.5129 220° Southwest  Level Estimated
10:48AM 30.0075 107.4302 220° Southwest  Level Estimated
10:49AM 29.9228 107.3477 220° Southwest  Level Estimated
10:50AM 29.8380 107.2653 220° Southwest  Level Estimated
10:51AM 29.7532 107.1830 220° Southwest  Level Estimated
10:52AM 29.6684 107.1009 220° Southwest  Level Estimated
10:53AM 29.5835 107.0189 220° Southwest  Level Estimated
10:54AM 29.4985 106.9371 220° Southwest  Level Estimated
10:55AM 29.4135 106.8554 220° Southwest  Level Estimated
10:56AM 29.3284 106.7738 220° Southwest  Level Estimated
10:57AM 29.2433 106.6924 220° Southwest  Level Estimated
10:58AM 29.1582 106.6111 220° Southwest  Level Estimated
10:59AM 29.0730 106.5299 220° Southwest  Level Estimated
11:00AM 28.9877 106.4489 220° Southwest  Level Estimated
11:01AM 28.9025 106.3680 220° Southwest  Level Estimated
11:02AM 28.8171 106.2873 220° Southwest  Level Estimated
11:03AM 28.7317 106.2066 220° Southwest  Level Estimated
11:04AM 28.6463 106.1261 220° Southwest  Level Estimated
11:05AM 28.5608 106.0458 220° Southwest  Level Estimated
11:06AM 28.4753 105.9655 220° Southwest  Level Estimated
11:07AM 28.3897 105.8854 219° Southwest  Level Estimated
11:08AM 28.3041 105.8055 219° Southwest  Level Estimated
11:09AM 28.2184 105.7256 219° Southwest  Level Estimated
11:10AM 28.1327 105.6459 219° Southwest  Level Estimated
11:11AM 28.0469 105.5663 219° Southwest  Level Estimated
11:12AM 27.9611 105.4868 219° Southwest  Level Estimated
11:13AM 27.8752 105.4075 219° Southwest  Level Estimated
11:14AM 27.7893 105.3283 219° Southwest  Level Estimated
11:15AM 27.7034 105.2492 219° Southwest  Level Estimated
11:16AM 27.6174 105.1702 219° Southwest  Level Estimated
11:17AM 27.5313 105.0914 219° Southwest  Level Estimated
11:18AM 27.4453 105.0127 219° Southwest  Level Estimated
11:19AM 27.3591 104.9341 219° Southwest  Level Estimated
11:20AM 27.2730 104.8556 219° Southwest  Level Estimated
11:21AM 27.1868 104.7773 219° Southwest  Level Estimated
11:22AM 27.1005 104.6990 219° Southwest  Level Estimated
11:23AM 27.0142 104.6209 219° Southwest  Level Estimated
11:24AM 26.9279 104.5429 219° Southwest  Level Estimated
11:25AM 26.8415 104.4651 219° Southwest  Level Estimated
11:26AM 26.7550 104.3873 219° Southwest  Level Estimated
11:27AM 26.6686 104.3097 219° Southwest  Level Estimated
11:28AM 26.5821 104.2322 219° Southwest  Level Estimated
11:29AM 26.4955 104.1548 219° Southwest  Level Estimated
11:30AM 26.4089 104.0775 219° Southwest  Level Estimated
11:31AM 26.3223 104.0003 219° Southwest  Level Estimated
11:32AM 26.2356 103.9233 219° Southwest  Level Estimated
11:33AM 26.1489 103.8464 219° Southwest  Level Estimated
11:34AM 26.0621 103.7695 219° Southwest  Level Estimated
11:35AM 25.9753 103.6928 218° Southwest  Level Estimated
11:36AM 25.8885 103.6162 218° Southwest  Level Estimated
11:37AM 25.8016 103.5398 218° Southwest  Level Estimated
11:38AM 25.7147 103.4634 218° Southwest  Level Estimated
11:39AM 25.6277 103.3871 218° Southwest  Level Estimated
11:40AM 25.5407 103.3110 218° Southwest  Level Estimated
11:41AM 25.4537 103.2350 218° Southwest  Level Estimated
11:42AM 25.3666 103.1590 218° Southwest  Level Estimated
11:43AM 25.2795 103.0832 218° Southwest  Level Estimated
11:44AM 25.1923 103.0075 218° Southwest  Level Estimated
11:45AM 25.1051 102.9319 218° Southwest  Level Estimated
11:46AM 25.1019 102.9292 218° Southwest  Level Estimated
11:47AM 25.1019 102.9292 326° Northwest  Level Estimated
11:48AM 25.1019 102.9292 326° Northwest  Level Estimated
11:49AM 25.1019 102.9292 326° Northwest  Level Estimated
11:50AM 25.1019 102.9292 326° Northwest  Level Estimated
11:51AM 25.1019 102.9292 326° Northwest  Level Estimated
11:52AM 25.1019 102.9292 326° Northwest  Level Estimated
11:53AM 25.1019 102.9292 326° Northwest  Level Estimated
11:54AM 25.1019 102.9292 326° Northwest  Level Estimated
11:55AM 25.1019 102.9292 326° Northwest  Level Estimated
11:56AM 25.1019 102.9292 326° Northwest  Level Estimated
11:57AM 25.1019 102.9292 326° Northwest  Level Estimated
11:58AM 25.1019 102.9292 326° Northwest  Level Estimated
11:59AM 25.1019 102.9292 326° Northwest  Level Estimated